Time;durP1;ratioP1;P1;durP2;ratioP2;P2;SDS_P1;SDS_P2;PMS_P1;PMS_P2;Temp;Humidity;BMP_temperature;BMP_pressure;BME280_temperature;BME280_humidity;BME280_pressure;Samples;Min_cycle;Max_cycle;Signal;HPM_P1;HPM_P2
2021/11/24 00:00:27;;;;;;;0.30;0.30;;;;;;;-6.88;71.73;97040.31;5092255;28;20038;-67
2021/11/24 00:02:53;;;;;;;0.80;0.80;;;;;;;-6.89;71.86;97043.97;5092206;28;20115;-68
2021/11/24 00:05:19;;;;;;;0.30;0.30;;;;;;;-6.90;71.92;97042.34;5093096;28;20055;-67
2021/11/24 00:07:46;;;;;;;0.30;0.30;;;;;;;-6.91;71.41;97044.16;5092294;28;20107;-67
2021/11/24 00:10:14;;;;;;;1.50;1.02;;;;;;;-6.94;71.89;97043.66;5092144;28;20039;-68
2021/11/24 00:12:40;;;;;;;0.43;0.43;;;;;;;-6.96;71.65;97043.84;5092362;28;20036;-68
2021/11/24 00:15:07;;;;;;;0.40;0.40;;;;;;;-6.95;71.84;97042.84;5092039;28;20505;-67
2021/11/24 00:17:33;;;;;;;0.40;0.40;;;;;;;-6.93;71.52;97046.16;5091988;28;20039;-66
2021/11/24 00:19:59;;;;;;;0.30;0.30;;;;;;;-6.93;71.84;97050.69;5091966;28;20032;-67
2021/11/24 00:22:25;;;;;;;0.60;0.60;;;;;;;-6.92;71.73;97047.84;5092030;28;20032;-67
2021/11/24 00:24:51;;;;;;;0.82;0.55;;;;;;;-6.90;71.68;97053.00;5092189;28;20541;-67
2021/11/24 00:27:16;;;;;;;0.60;0.60;;;;;;;-6.86;71.73;97056.97;5092077;28;20036;-67
2021/11/24 00:29:42;;;;;;;0.40;0.40;;;;;;;-6.84;71.75;97060.34;5091810;28;20032;-68
2021/11/24 00:32:08;;;;;;;0.40;0.40;;;;;;;-6.81;71.65;97062.66;5091275;28;20062;-68
2021/11/24 00:34:35;;;;;;;0.40;0.40;;;;;;;-6.85;71.55;97056.00;5093031;28;20482;-68
2021/11/24 00:37:01;;;;;;;0.63;0.40;;;;;;;-6.88;71.92;97056.34;5092675;28;20043;-68
2021/11/24 00:39:27;;;;;;;0.40;0.40;;;;;;;-6.92;72.04;97068.34;5090600;28;20031;-68
2021/11/24 00:41:52;;;;;;;2.47;0.65;;;;;;;-6.89;72.03;97060.00;5092113;28;20050;-67
2021/11/24 00:44:18;;;;;;;0.40;0.40;;;;;;;-6.87;72.01;97068.69;5091815;28;20487;-67
2021/11/24 00:46:44;;;;;;;0.30;0.30;;;;;;;-6.87;71.80;97069.50;5091607;28;20482;-67
2021/11/24 00:49:10;;;;;;;0.30;0.30;;;;;;;-6.92;71.88;97069.19;5092163;28;20039;-67
2021/11/24 00:51:36;;;;;;;0.30;0.30;;;;;;;-6.96;72.10;97075.84;5090903;28;20065;-68
2021/11/24 00:54:03;;;;;;;0.40;0.40;;;;;;;-6.99;72.14;97080.66;5091612;28;20040;-66
2021/11/24 00:56:29;;;;;;;0.30;0.30;;;;;;;-7.07;72.05;97089.50;5091850;28;20154;-65
2021/11/24 00:58:54;;;;;;;0.95;0.55;;;;;;;-7.08;72.01;97088.69;5095292;28;20024;-70
2021/11/24 01:01:21;;;;;;;0.30;0.30;;;;;;;-7.15;72.37;97098.34;5095248;28;20042;-67
2021/11/24 01:03:46;;;;;;;0.30;0.30;;;;;;;-7.22;72.20;97090.16;5095174;28;20031;-67
2021/11/24 01:06:12;;;;;;;0.55;0.55;;;;;;;-7.24;72.25;97094.00;5095458;28;20123;-65
2021/11/24 01:08:38;;;;;;;0.30;0.30;;;;;;;-7.33;72.60;97101.16;5095734;28;20031;-66
2021/11/24 01:11:05;;;;;;;0.70;0.70;;;;;;;-7.43;72.54;97106.63;5095021;28;20061;-66
2021/11/24 01:13:31;;;;;;;0.55;0.55;;;;;;;-7.54;73.01;97111.44;5094429;28;20056;-68
2021/11/24 01:15:57;;;;;;;0.30;0.30;;;;;;;-7.58;73.10;97103.78;5094799;28;20114;-67
2021/11/24 01:18:23;;;;;;;0.40;0.40;;;;;;;-7.60;72.93;97104.94;5094931;28;20623;-69
2021/11/24 01:20:49;;;;;;;3.85;0.68;;;;;;;-7.62;72.99;97110.41;5094772;28;20479;-68
2021/11/24 01:23:16;;;;;;;0.70;0.70;;;;;;;-7.65;73.03;97113.41;5094763;28;20088;-67
2021/11/24 01:25:42;;;;;;;0.38;0.38;;;;;;;-7.70;73.34;97122.88;5094479;28;20039;-65
2021/11/24 01:28:08;;;;;;;0.45;0.45;;;;;;;-7.78;73.48;97116.53;5094459;28;20039;-67
2021/11/24 01:30:34;;;;;;;5.78;1.02;;;;;;;-7.75;73.38;97126.03;5094465;28;20036;-66
2021/11/24 01:33:00;;;;;;;0.30;0.30;;;;;;;-7.79;73.52;97122.88;5094025;28;20052;-66
2021/11/24 01:35:26;;;;;;;0.55;0.55;;;;;;;-7.81;73.14;97124.03;5094591;28;20457;-66
2021/11/24 01:37:51;;;;;;;1.88;1.42;;;;;;;-7.85;73.38;97135.97;5094912;28;20163;-66
2021/11/24 01:40:19;;;;;;;1.33;0.85;;;;;;;-7.88;73.41;97125.66;5094331;28;20032;-69
2021/11/24 01:42:44;;;;;;;2.00;0.88;;;;;;;-7.89;73.46;97139.97;5093918;28;20036;-66
2021/11/24 01:45:14;;;;;;;0.57;0.57;;;;;;;-7.87;73.45;97149.47;5092912;28;20039;-65
2021/11/24 01:47:40;;;;;;;0.88;0.88;;;;;;;-7.86;73.37;97148.47;5094462;28;20047;-66
2021/11/24 01:50:07;;;;;;;11.25;2.13;;;;;;;-7.86;73.31;97143.16;5093054;28;20036;-64
2021/11/24 01:52:33;;;;;;;4.03;1.15;;;;;;;-7.84;73.40;97137.66;5094040;28;20666;-64
2021/11/24 01:55:00;;;;;;;0.40;0.40;;;;;;;-7.85;73.46;97146.66;5094074;28;20054;-63
2021/11/24 01:57:28;;;;;;;0.50;0.50;;;;;;;-7.83;73.29;97140.16;5093986;28;20085;-64
2021/11/24 01:59:56;;;;;;;0.43;0.43;;;;;;;-7.82;73.26;97136.47;5092951;28;20085;-63
2021/11/24 02:02:23;;;;;;;0.40;0.40;;;;;;;-7.81;73.08;97148.00;5092476;28;20028;-63
2021/11/24 02:04:49;;;;;;;1.05;0.95;;;;;;;-7.81;73.16;97142.66;5092837;28;20169;-64
2021/11/24 02:07:14;;;;;;;0.70;0.52;;;;;;;-7.86;73.31;97148.47;5092519;28;20077;-64
2021/11/24 02:09:42;;;;;;;0.50;0.50;;;;;;;-7.84;73.21;97158.97;5092639;28;20028;-68
2021/11/24 02:12:11;;;;;;;0.63;0.40;;;;;;;-7.80;73.13;97161.16;5093796;28;20086;-65
2021/11/24 02:14:37;;;;;;;0.95;0.85;;;;;;;-7.78;72.78;97161.81;5093251;28;20028;-65
2021/11/24 02:17:03;;;;;;;0.85;0.85;;;;;;;-7.76;72.86;97161.66;5094374;28;20414;-66
2021/11/24 02:19:34;;;;;;;5.07;0.80;;;;;;;-7.77;72.50;97155.50;5094034;28;20066;-65
2021/11/24 02:22:01;;;;;;;1.75;1.48;;;;;;;-7.78;72.49;97153.81;5093598;28;20031;-66
2021/11/24 02:24:31;;;;;;;1.88;1.25;;;;;;;-7.80;72.33;97157.63;5093598;28;20440;-66
2021/11/24 02:26:57;;;;;;;3.47;1.90;;;;;;;-7.87;72.35;97160.13;5093484;28;20028;-65
2021/11/24 02:29:23;;;;;;;3.53;2.03;;;;;;;-7.89;72.33;97170.13;5092661;28;20474;-67
2021/11/24 02:31:52;;;;;;;2.03;1.42;;;;;;;-7.90;72.24;97171.09;5091965;28;20473;-65
2021/11/24 02:34:19;;;;;;;2.72;1.85;;;;;;;-7.91;72.54;97174.75;5092249;28;20044;-67
2021/11/24 02:36:45;;;;;;;1.55;1.25;;;;;;;-7.95;72.30;97182.25;5092786;28;20451;-65
2021/11/24 02:39:12;;;;;;;5.38;1.55;;;;;;;-8.01;72.24;97182.03;5092982;28;20123;-65
2021/11/24 02:41:38;;;;;;;1.75;1.17;;;;;;;-8.10;72.64;97187.31;5093451;28;20032;-65
2021/11/24 02:44:23;;;;;;;0.50;0.50;;;;;;;-8.16;72.54;97201.22;5093251;28;20534;-66
2021/11/24 02:46:49;;;;;;;0.95;0.90;;;;;;;-8.19;72.72;97190.91;5093618;28;20043;-65
2021/11/24 02:49:15;;;;;;;0.38;0.38;;;;;;;-8.22;72.82;97188.56;5092990;28;20103;-64
2021/11/24 02:51:42;;;;;;;0.68;0.68;;;;;;;-8.27;72.81;97193.53;5091612;28;20127;-65
2021/11/24 02:54:09;;;;;;;0.40;0.40;;;;;;;-8.32;72.61;97201.13;5091471;28;20039;-67
2021/11/24 02:56:36;;;;;;;0.70;0.70;;;;;;;-8.36;72.58;97202.44;5092777;28;20043;-67
2021/11/24 02:59:02;;;;;;;0.47;0.47;;;;;;;-8.39;72.95;97198.28;5093698;28;20055;-65
2021/11/24 03:01:29;;;;;;;0.82;0.82;;;;;;;-8.38;72.68;97201.75;5092463;28;20032;-67
2021/11/24 03:03:54;;;;;;;0.40;0.40;;;;;;;-8.38;72.84;97207.09;5092962;28;20031;-67
2021/11/24 03:09:45;;;;;;;0.30;0.30;;;;;;;-8.41;72.68;97216.22;5090496;28;20081;-65
2021/11/24 03:12:15;;;;;;;15.68;1.05;;;;;;;-8.43;72.95;97214.69;5087541;28;20035;-65
2021/11/24 03:14:41;;;;;;;0.40;0.40;;;;;;;-8.44;72.55;97218.38;5089068;28;20042;-65
2021/11/24 03:17:07;;;;;;;0.65;0.65;;;;;;;-8.44;72.66;97221.88;5090893;28;20110;-66
2021/11/24 03:19:33;;;;;;;0.40;0.40;;;;;;;-8.44;72.38;97224.53;5090530;28;20092;-65
2021/11/24 03:21:58;;;;;;;0.85;0.85;;;;;;;-8.41;72.71;97226.84;5090605;28;20028;-65
2021/11/24 03:24:24;;;;;;;0.75;0.75;;;;;;;-8.42;72.75;97230.53;5091182;28;20024;-65
2021/11/24 03:26:50;;;;;;;1.55;0.55;;;;;;;-8.41;72.42;97226.84;5090662;28;20047;-67
2021/11/24 03:29:16;;;;;;;0.30;0.30;;;;;;;-8.42;72.46;97227.88;5089930;28;20028;-65
2021/11/24 03:31:41;;;;;;;0.40;0.40;;;;;;;-8.44;72.83;97231.69;5089381;28;20113;-65
2021/11/24 03:34:09;;;;;;;0.80;0.80;;;;;;;-8.49;72.78;97235.66;5091186;28;20454;-65
2021/11/24 03:36:35;;;;;;;0.30;0.30;;;;;;;-8.60;72.71;97235.88;5091352;28;20055;-67
2021/11/24 03:39:02;;;;;;;0.30;0.30;;;;;;;-8.69;73.21;97240.28;5089854;28;20080;-65
2021/11/24 03:41:28;;;;;;;1.27;0.52;;;;;;;-8.74;73.28;97237.25;5091174;28;20075;-65
2021/11/24 03:43:54;;;;;;;0.40;0.40;;;;;;;-8.73;73.46;97243.41;5091131;28;20462;-66
2021/11/24 03:46:21;;;;;;;0.32;0.32;;;;;;;-8.81;73.65;97247.66;5090967;28;20473;-65
2021/11/24 03:48:47;;;;;;;2.50;0.77;;;;;;;-8.87;73.51;97256.25;5089538;28;20043;-65
2021/11/24 03:51:13;;;;;;;1.00;0.60;;;;;;;-8.89;73.89;97255.56;5090940;28;20024;-65
2021/11/24 03:53:40;;;;;;;0.57;0.57;;;;;;;-8.90;73.78;97248.56;5089674;28;20036;-65
2021/11/24 03:56:10;;;;;;;0.63;0.57;;;;;;;-8.79;73.69;97262.63;5083943;28;20064;-65
2021/11/24 03:58:36;;;;;;;0.40;0.40;;;;;;;-8.76;73.43;97260.50;5080578;28;20119;-65
2021/11/24 04:01:05;;;;;;;1.17;0.63;;;;;;;-8.72;73.40;97255.72;5079587;28;20020;-66
2021/11/24 04:03:32;;;;;;;0.52;0.52;;;;;;;-8.66;73.06;97260.44;5081500;28;20031;-66
2021/11/24 04:05:57;;;;;;;1.60;0.70;;;;;;;-8.58;72.79;97262.34;5080358;28;20035;-66
2021/11/24 04:08:23;;;;;;;0.77;0.77;;;;;;;-8.54;72.89;97264.53;5082393;28;20036;-65
2021/11/24 04:10:49;;;;;;;0.70;0.70;;;;;;;-8.55;72.70;97273.53;5080078;28;20036;-65
2021/11/24 04:13:14;;;;;;;0.30;0.30;;;;;;;-8.53;72.65;97268.06;5083084;28;20128;-66
2021/11/24 04:15:40;;;;;;;0.30;0.30;;;;;;;-8.51;72.73;97276.72;5080600;28;20162;-65
2021/11/24 04:18:06;;;;;;;0.30;0.30;;;;;;;-8.47;72.51;97270.09;5079278;28;20505;-65
2021/11/24 04:20:32;;;;;;;0.30;0.30;;;;;;;-8.43;72.69;97276.75;5081061;28;20039;-66
2021/11/24 04:22:58;;;;;;;0.47;0.40;;;;;;;-8.43;72.61;97275.91;5088003;28;20032;-65
2021/11/24 04:25:24;;;;;;;0.45;0.45;;;;;;;-8.46;72.30;97283.25;5090409;28;20024;-66
2021/11/24 04:27:49;;;;;;;2.17;0.75;;;;;;;-8.50;72.35;97281.06;5090519;28;20032;-64
2021/11/24 04:30:17;;;;;;;0.82;0.82;;;;;;;-8.53;72.33;97279.53;5090406;28;20083;-65
2021/11/24 04:32:43;;;;;;;0.45;0.43;;;;;;;-8.55;72.83;97278.84;5091321;28;20509;-66
2021/11/24 04:35:09;;;;;;;0.60;0.60;;;;;;;-8.50;72.83;97276.56;5094304;28;20024;-66
2021/11/24 04:37:35;;;;;;;0.82;0.82;;;;;;;-8.44;72.53;97277.78;5094459;28;20589;-66
2021/11/24 04:40:01;;;;;;;0.40;0.40;;;;;;;-8.46;72.36;97285.91;5094203;28;20028;-68
2021/11/24 04:42:27;;;;;;;0.63;0.63;;;;;;;-8.47;72.40;97284.22;5094517;28;20030;-66
2021/11/24 04:44:53;;;;;;;0.30;0.30;;;;;;;-8.47;72.57;97284.22;5094104;28;20032;-64
2021/11/24 04:47:19;;;;;;;0.75;0.50;;;;;;;-8.49;72.56;97280.06;5094616;28;20566;-66
2021/11/24 04:49:44;;;;;;;0.40;0.40;;;;;;;-8.47;72.42;97291.38;5094899;28;20115;-67
2021/11/24 04:52:10;;;;;;;0.50;0.50;;;;;;;-8.53;72.18;97289.34;5094226;28;20077;-66
2021/11/24 04:54:36;;;;;;;0.43;0.43;;;;;;;-8.59;72.58;97285.47;5095529;28;20354;-65
2021/11/24 04:57:02;;;;;;;0.38;0.38;;;;;;;-8.64;72.62;97287.75;5095900;28;20097;-67
2021/11/24 04:59:28;;;;;;;0.63;0.63;;;;;;;-8.69;72.82;97290.84;5094884;28;20038;-66
2021/11/24 05:01:53;;;;;;;0.30;0.30;;;;;;;-8.71;72.83;97289.34;5095152;28;20119;-67
2021/11/24 05:04:21;;;;;;;0.32;0.32;;;;;;;-8.69;72.63;97295.34;5095890;28;20040;-66
2021/11/24 05:06:48;;;;;;;2.88;0.82;;;;;;;-8.70;72.55;97285.66;5095027;28;20167;-66
2021/11/24 05:09:14;;;;;;;0.30;0.30;;;;;;;-8.69;72.26;97292.69;5095326;28;20054;-67
2021/11/24 05:11:40;;;;;;;0.63;0.63;;;;;;;-8.67;72.33;97296.00;5095058;28;20454;-67
2021/11/24 05:14:09;;;;;;;0.63;0.63;;;;;;;-8.67;72.11;97288.03;5093385;28;20067;-66
2021/11/24 05:16:36;;;;;;;0.60;0.60;;;;;;;-8.61;72.22;97298.09;5076630;28;20066;-66
2021/11/24 05:19:03;;;;;;;1.75;0.55;;;;;;;-8.61;71.99;97290.09;5085842;28;20043;-66
2021/11/24 05:21:35;;;;;;;0.40;0.40;;;;;;;-8.61;71.77;97294.56;5092781;28;20038;-66
2021/11/24 05:24:01;;;;;;;0.30;0.30;;;;;;;-8.65;71.98;97294.88;5089042;28;20082;-66
2021/11/24 05:26:29;;;;;;;0.45;0.45;;;;;;;-8.64;72.20;97285.09;5092786;28;20032;-66
2021/11/24 05:28:55;;;;;;;0.70;0.70;;;;;;;-8.61;71.92;97300.75;5091842;28;20085;-64
2021/11/24 05:31:21;;;;;;;0.40;0.40;;;;;;;-8.58;71.96;97288.94;5092768;28;20055;-66
2021/11/24 05:33:48;;;;;;;0.50;0.50;;;;;;;-8.54;71.75;97285.81;5092415;28;20055;-65
2021/11/24 05:36:15;;;;;;;0.52;0.47;;;;;;;-8.52;71.84;97286.53;5092758;28;20067;-65
2021/11/24 05:38:41;;;;;;;0.40;0.40;;;;;;;-8.52;71.58;97288.38;5093091;28;20462;-67
2021/11/24 05:41:07;;;;;;;1.58;0.60;;;;;;;-8.54;71.50;97285.00;5094177;28;20040;-65
2021/11/24 05:43:34;;;;;;;0.40;0.40;;;;;;;-8.57;71.62;97286.13;5094369;28;20394;-66
2021/11/24 05:46:11;;;;;;;0.40;0.40;;;;;;;-8.60;71.92;97294.41;5094417;28;20039;-65
2021/11/24 05:48:38;;;;;;;0.30;0.30;;;;;;;-8.66;71.93;97293.19;5094760;28;20490;-66
2021/11/24 05:51:04;;;;;;;0.30;0.30;;;;;;;-8.69;71.61;97290.84;5094988;28;20039;-66
2021/11/24 05:53:29;;;;;;;0.30;0.30;;;;;;;-8.69;71.70;97298.00;5094468;28;20044;-66
2021/11/24 05:55:55;;;;;;;0.55;0.43;;;;;;;-8.67;72.03;97296.00;5094308;28;20036;-67
2021/11/24 05:58:21;;;;;;;0.30;0.30;;;;;;;-8.64;71.90;97291.25;5094812;28;20043;-66
2021/11/24 06:00:47;;;;;;;0.47;0.47;;;;;;;-8.64;71.65;97296.56;5094636;28;20035;-65
2021/11/24 06:03:13;;;;;;;0.60;0.60;;;;;;;-8.60;71.50;97304.25;5093484;28;20410;-65
2021/11/24 06:05:39;;;;;;;3.83;0.88;;;;;;;-8.58;71.57;97302.25;5093847;28;20122;-66
2021/11/24 06:08:05;;;;;;;0.50;0.50;;;;;;;-8.56;71.75;97308.28;5094625;28;20100;-66
2021/11/24 06:10:31;;;;;;;0.65;0.65;;;;;;;-8.56;71.44;97298.47;5094271;28;20115;-66
2021/11/24 06:12:58;;;;;;;0.40;0.40;;;;;;;-8.53;71.47;97302.66;5093909;28;20032;-65
2021/11/24 06:15:24;;;;;;;0.30;0.30;;;;;;;-8.52;71.36;97305.16;5092756;28;20111;-66
2021/11/24 06:17:50;;;;;;;0.50;0.50;;;;;;;-8.48;71.41;97309.19;5094167;28;20032;-66
2021/11/24 06:20:17;;;;;;;0.63;0.63;;;;;;;-8.44;71.19;97303.56;5094914;28;20108;-66
2021/11/24 06:22:44;;;;;;;0.30;0.30;;;;;;;-8.38;71.13;97300.25;5093997;28;20089;-66
2021/11/24 06:25:11;;;;;;;0.35;0.35;;;;;;;-8.28;70.68;97303.69;5094131;28;20097;-66
2021/11/24 06:27:37;;;;;;;0.40;0.40;;;;;;;-8.15;70.70;97306.78;5094438;28;20114;-66
2021/11/24 06:30:05;;;;;;;0.30;0.30;;;;;;;-8.12;70.42;97298.47;5093810;28;20071;-66
2021/11/24 06:32:31;;;;;;;1.58;0.95;;;;;;;-8.01;70.27;97309.88;5091984;28;20123;-65
2021/11/24 06:34:56;;;;;;;0.50;0.50;;;;;;;-7.81;69.82;97310.53;5093868;28;20043;-66
2021/11/24 06:37:23;;;;;;;0.30;0.30;;;;;;;-7.60;69.52;97316.31;5093956;28;20494;-66
2021/11/24 06:39:48;;;;;;;0.40;0.40;;;;;;;-7.44;69.41;97310.25;5093818;28;20541;-67
2021/11/24 06:42:15;;;;;;;0.30;0.30;;;;;;;-7.24;68.91;97310.03;5092235;28;20069;-65
2021/11/24 06:44:41;;;;;;;0.47;0.47;;;;;;;-6.99;68.75;97316.31;5093383;28;20118;-66
2021/11/24 06:47:07;;;;;;;0.55;0.55;;;;;;;-6.83;68.01;97315.53;5093435;28;20118;-66
2021/11/24 06:49:32;;;;;;;0.40;0.40;;;;;;;-6.73;67.92;97310.06;5093320;28;20554;-66
2021/11/24 06:51:58;;;;;;;0.45;0.45;;;;;;;-6.71;68.30;97308.91;5092486;28;20100;-66
2021/11/24 06:54:24;;;;;;;0.50;0.50;;;;;;;-6.60;68.20;97314.94;5093005;28;20044;-66
2021/11/24 06:56:50;;;;;;;0.50;0.50;;;;;;;-6.55;68.27;97316.13;5093403;28;20067;-67
2021/11/24 06:59:17;;;;;;;0.40;0.40;;;;;;;-6.54;68.07;97316.94;5092849;28;20039;-66
2021/11/24 07:01:43;;;;;;;4.15;0.60;;;;;;;-6.54;68.36;97317.75;5092376;28;20031;-66
2021/11/24 07:04:09;;;;;;;0.40;0.40;;;;;;;-6.57;68.50;97317.28;5093520;28;20089;-66
2021/11/24 07:06:36;;;;;;;0.50;0.50;;;;;;;-6.46;68.53;97318.78;5093292;28;20096;-66
2021/11/24 07:09:03;;;;;;;0.75;0.75;;;;;;;-6.35;68.27;97313.97;5093091;28;20119;-65
2021/11/24 07:11:31;;;;;;;0.40;0.40;;;;;;;-6.31;68.02;97329.69;5093153;28;20035;-66
2021/11/24 07:13:57;;;;;;;0.40;0.40;;;;;;;-6.18;68.03;97328.19;5093142;28;20192;-66
2021/11/24 07:16:24;;;;;;;0.30;0.30;;;;;;;-6.02;67.54;97318.50;5092807;28;20103;-66
2021/11/24 07:18:49;;;;;;;7.07;0.88;;;;;;;-5.92;67.46;97327.16;5091487;28;20487;-66
2021/11/24 07:21:15;;;;;;;0.60;0.60;;;;;;;-5.79;67.37;97326.66;5093513;28;20039;-65
2021/11/24 07:23:41;;;;;;;0.40;0.40;;;;;;;-5.76;67.27;97329.00;5093284;28;20032;-65
2021/11/24 07:26:06;;;;;;;3.47;1.15;;;;;;;-5.81;67.61;97323.34;5092510;28;20047;-65
2021/11/24 07:28:32;;;;;;;1.55;0.73;;;;;;;-5.85;67.78;97319.31;5092580;28;20124;-65
2021/11/24 07:30:58;;;;;;;0.40;0.40;;;;;;;-5.85;67.95;97319.31;5093083;28;20028;-65
2021/11/24 07:33:24;;;;;;;0.30;0.30;;;;;;;-5.86;67.81;97321.16;5091810;28;20105;-66
2021/11/24 07:35:50;;;;;;;0.38;0.38;;;;;;;-5.80;68.06;97327.66;5092655;28;20063;-65
2021/11/24 07:38:16;;;;;;;0.77;0.73;;;;;;;-5.68;67.79;97322.84;5074776;28;20036;-65
2021/11/24 07:40:42;;;;;;;0.43;0.43;;;;;;;-5.61;67.53;97314.94;5092808;28;20024;-66
2021/11/24 07:43:08;;;;;;;1.05;0.95;;;;;;;-5.61;67.50;97328.31;5092359;28;20028;-64
2021/11/24 07:45:34;;;;;;;0.40;0.40;;;;;;;-5.61;67.55;97328.31;5092464;28;20111;-65
2021/11/24 07:48:00;;;;;;;0.65;0.65;;;;;;;-5.55;67.47;97332.97;5091274;28;20063;-67
2021/11/24 07:50:26;;;;;;;1.33;0.50;;;;;;;-5.46;67.44;97332.00;5093355;28;20494;-66
2021/11/24 07:52:52;;;;;;;0.40;0.40;;;;;;;-5.41;67.59;97326.94;5093506;28;20040;-66
2021/11/24 07:55:18;;;;;;;0.50;0.50;;;;;;;-5.39;67.54;97335.63;5092727;28;20070;-66
2021/11/24 07:57:43;;;;;;;0.30;0.30;;;;;;;-5.34;67.48;97346.66;5092285;28;20032;-66
2021/11/24 08:00:12;;;;;;;0.45;0.45;;;;;;;-5.34;67.38;97337.81;5092410;28;20028;-65
2021/11/24 08:02:40;;;;;;;0.45;0.45;;;;;;;-5.36;67.50;97338.00;5091804;28;20139;-65
2021/11/24 08:05:06;;;;;;;0.50;0.50;;;;;;;-5.30;67.47;97345.34;5092421;28;20036;-66
2021/11/24 08:07:32;;;;;;;0.55;0.55;;;;;;;-5.25;67.43;97344.00;5096424;28;20500;-64
2021/11/24 08:09:59;;;;;;;0.60;0.60;;;;;;;-5.32;67.70;97339.28;5096461;28;20032;-65
2021/11/24 08:12:25;;;;;;;0.70;0.70;;;;;;;-5.23;67.65;97341.97;5096112;28;20028;-68
2021/11/24 08:14:52;;;;;;;0.90;0.73;;;;;;;-5.08;67.29;97345.59;5095950;28;20032;-65
2021/11/24 08:17:19;;;;;;;0.30;0.30;;;;;;;-4.95;67.22;97327.16;5096712;28;20040;-66
2021/11/24 08:19:44;;;;;;;0.35;0.35;;;;;;;-4.84;66.92;97333.97;5097255;28;20451;-66
2021/11/24 08:22:10;;;;;;;0.30;0.30;;;;;;;-4.75;66.76;97342.81;5096012;28;20028;-67
2021/11/24 08:24:36;;;;;;;0.80;0.57;;;;;;;-4.72;66.77;97338.97;5095161;28;20032;-67
2021/11/24 08:27:02;;;;;;;0.93;0.93;;;;;;;-4.69;66.83;97341.28;5095293;28;20020;-65
2021/11/24 08:29:29;;;;;;;0.73;0.73;;;;;;;-4.70;66.75;97343.13;5094359;28;20035;-66
2021/11/24 08:31:55;;;;;;;0.60;0.60;;;;;;;-4.66;66.70;97338.25;5094990;28;20063;-66
2021/11/24 08:34:21;;;;;;;0.55;0.45;;;;;;;-4.70;66.83;97342.28;5095293;28;20409;-64
2021/11/24 08:36:48;;;;;;;0.30;0.30;;;;;;;-4.80;67.11;97343.34;5096160;28;20039;-66
2021/11/24 08:39:14;;;;;;;0.38;0.38;;;;;;;-4.84;66.98;97352.72;5095612;28;20032;-66
2021/11/24 08:41:39;;;;;;;0.40;0.40;;;;;;;-4.89;67.31;97348.88;5095717;28;20034;-65
2021/11/24 08:44:05;;;;;;;0.30;0.30;;;;;;;-4.93;67.52;97343.88;5095638;28;20111;-66
2021/11/24 08:46:31;;;;;;;0.38;0.38;;;;;;;-4.93;67.48;97359.13;5095892;28;20081;-66
2021/11/24 08:48:57;;;;;;;0.30;0.30;;;;;;;-4.97;67.47;97361.28;5095875;28;20028;-65
2021/11/24 08:51:23;;;;;;;0.30;0.30;;;;;;;-5.03;67.57;97359.31;5095516;28;20059;-65
2021/11/24 08:53:49;;;;;;;0.38;0.38;;;;;;;-5.09;67.66;97365.34;5095981;28;20032;-65
2021/11/24 08:56:14;;;;;;;1.05;1.05;;;;;;;-5.17;67.81;97368.03;5095674;28;20105;-66
2021/11/24 08:58:40;;;;;;;1.25;0.60;;;;;;;-5.25;67.86;97370.75;5095255;28;20324;-65
2021/11/24 09:01:07;;;;;;;0.70;0.70;;;;;;;-5.28;67.87;97380.75;5095151;28;20043;-66
2021/11/24 09:03:33;;;;;;;0.32;0.32;;;;;;;-5.28;67.95;97378.09;5093193;28;20035;-66
2021/11/24 09:05:59;;;;;;;0.68;0.68;;;;;;;-5.33;67.91;97385.81;5095236;28;20406;-65
2021/11/24 09:08:26;;;;;;;0.30;0.30;;;;;;;-5.41;67.90;97382.31;5095182;28;20035;-66
2021/11/24 09:14:55;;;;;;;0.63;0.50;;;;;;;-5.54;68.06;97385.47;5077646;28;20051;-65
2021/11/24 09:21:24;;;;;;;0.50;0.50;;;;;;;-5.76;68.02;97385.13;5074579;28;20093;-64
2021/11/24 09:24:14;;;;;;;0.40;0.40;;;;;;;-6.00;68.47;97384.16;5074882;28;20040;-66
2021/11/24 09:26:45;;;;;;;0.40;0.40;;;;;;;-6.17;68.67;97390.47;5074875;28;20032;-65
2021/11/24 09:29:12;;;;;;;0.30;0.30;;;;;;;-6.28;68.96;97394.28;5074878;28;20032;-66
2021/11/24 09:31:39;;;;;;;1.02;0.50;;;;;;;-6.39;69.12;97400.78;5073470;28;20082;-65
2021/11/24 09:34:04;;;;;;;0.68;0.55;;;;;;;-6.45;69.22;97397.91;5074416;28;20045;-65
2021/11/24 09:36:30;;;;;;;0.40;0.40;;;;;;;-6.49;69.12;97399.22;5074628;28;20363;-66
2021/11/24 09:38:56;;;;;;;2.90;1.02;;;;;;;-6.54;69.29;97397.03;5074360;28;20463;-65
2021/11/24 09:41:24;;;;;;;0.70;0.70;;;;;;;-6.58;69.29;97398.34;5074098;28;20032;-65
2021/11/24 09:43:53;;;;;;;0.55;0.55;;;;;;;-6.58;69.15;97406.38;5074227;28;20036;-65
2021/11/24 09:46:19;;;;;;;4.07;0.73;;;;;;;-6.53;68.77;97407.56;5074003;28;20070;-66
2021/11/24 09:48:48;;;;;;;0.50;0.47;;;;;;;-6.49;68.70;97400.09;5074261;28;20025;-66
2021/11/24 09:55:16;;;;;;;0.30;0.30;;;;;;;-6.44;68.68;97408.44;5070249;28;20055;-66
2021/11/24 10:01:24;;;;;;;0.30;0.30;;;;;;;-6.60;68.56;97413.72;5073648;28;19927;-66
2021/11/24 10:03:50;;;;;;;0.30;0.30;;;;;;;-6.60;68.55;97413.72;5061736;28;20036;-67
2021/11/24 10:06:16;;;;;;;0.30;0.30;;;;;;;-6.66;68.65;97409.84;5072056;28;20085;-66
2021/11/24 10:08:42;;;;;;;0.30;0.30;;;;;;;-6.69;68.96;97421.69;5071913;28;20475;-66
2021/11/24 10:11:08;;;;;;;0.30;0.30;;;;;;;-6.72;68.58;97415.84;5072097;28;20086;-64
2021/11/24 10:13:34;;;;;;;0.38;0.38;;;;;;;-6.73;68.79;97424.84;5072178;28;20123;-65
2021/11/24 10:16:01;;;;;;;0.40;0.40;;;;;;;-6.77;68.94;97432.34;5070337;28;20090;-66
2021/11/24 10:18:30;;;;;;;0.30;0.30;;;;;;;-6.76;69.06;97425.16;5072042;28;20032;-66
2021/11/24 10:21:09;;;;;;;0.60;0.60;;;;;;;-6.77;68.83;97419.00;5070770;28;20470;-66
2021/11/24 10:23:39;;;;;;;0.60;0.60;;;;;;;-6.76;69.07;97441.16;5070605;28;20040;-67
2021/11/24 10:26:37;;;;;;;0.38;0.38;;;;;;;-6.75;68.85;97443.69;5069035;28;20116;-65
2021/11/24 10:29:15;;;;;;;0.50;0.50;;;;;;;-6.74;69.20;97424.00;5066158;28;20162;-65
2021/11/24 10:31:46;;;;;;;0.32;0.32;;;;;;;-6.71;68.83;97431.69;5070730;28;20040;-68
2021/11/24 10:34:25;;;;;;;0.60;0.60;;;;;;;-6.71;68.68;97434.38;5071046;28;20081;-65
2021/11/24 10:37:05;;;;;;;0.30;0.30;;;;;;;-6.70;68.87;97433.38;5069715;28;20032;-68
2021/11/24 10:40:08;;;;;;;0.30;0.30;;;;;;;-6.65;68.73;97442.72;5070001;28;20034;-67
2021/11/24 10:42:39;;;;;;;0.50;0.50;;;;;;;-6.65;68.81;97442.72;5069211;28;20676;-68
2021/11/24 10:45:15;;;;;;;0.38;0.38;;;;;;;-6.64;68.76;97444.41;5068835;28;20523;-67
2021/11/24 10:47:53;;;;;;;2.08;0.60;;;;;;;-6.61;68.81;97444.94;5071452;28;20044;-68
2021/11/24 10:50:22;;;;;;;0.40;0.40;;;;;;;-6.61;68.94;97439.59;5071433;28;20036;-68
2021/11/24 10:52:48;;;;;;;0.40;0.40;;;;;;;-6.62;68.85;97447.75;5068935;28;20020;-67
2021/11/24 10:55:21;;;;;;;0.40;0.40;;;;;;;-6.64;68.63;97444.41;5065112;28;20483;-68
2021/11/24 10:58:02;;;;;;;0.60;0.60;;;;;;;-6.67;68.90;97447.38;5057856;28;20033;-70
2021/11/24 11:00:38;;;;;;;0.30;0.30;;;;;;;-6.71;68.96;97449.56;5063415;28;20032;-68
2021/11/24 11:03:05;;;;;;;4.00;1.27;;;;;;;-6.77;69.05;97452.84;5066242;28;20028;-68
2021/11/24 11:05:32;;;;;;;0.50;0.50;;;;;;;-6.80;69.05;97459.34;5069974;28;20039;-68
2021/11/24 11:08:06;;;;;;;0.50;0.50;;;;;;;-6.81;69.23;97460.34;5070115;28;20040;-68
2021/11/24 11:10:54;;;;;;;0.60;0.60;;;;;;;-6.76;69.07;97459.84;5050206;28;20033;-68
2021/11/24 11:13:22;;;;;;;1.02;1.02;;;;;;;-6.77;69.21;97461.69;5083334;28;20036;-70
2021/11/24 11:15:58;;;;;;;1.10;0.77;;;;;;;-6.79;69.10;97458.34;5068587;28;20151;-70
2021/11/24 11:18:31;;;;;;;0.60;0.60;;;;;;;-6.81;69.01;97464.84;5056366;28;20024;-71
2021/11/24 11:21:11;;;;;;;1.10;0.80;;;;;;;-6.81;69.23;97460.34;5070778;28;20036;-71
2021/11/24 11:23:48;;;;;;;0.68;0.68;;;;;;;-6.80;69.23;97475.38;5071178;28;20024;-70
2021/11/24 11:26:20;;;;;;;0.55;0.55;;;;;;;-6.86;69.29;97467.97;5072141;28;20402;-70
2021/11/24 11:28:49;;;;;;;0.57;0.57;;;;;;;-6.90;69.61;97470.13;5072632;28;20451;-71
2021/11/24 11:31:18;;;;;;;0.52;0.52;;;;;;;-6.96;69.39;97477.91;5072719;28;20040;-70
2021/11/24 11:33:47;;;;;;;0.50;0.50;;;;;;;-6.96;69.35;97477.91;5072061;28;20422;-69
2021/11/24 11:36:13;;;;;;;0.63;0.63;;;;;;;-6.99;69.40;97484.41;5072955;28;20115;-69
2021/11/24 11:38:51;;;;;;;0.30;0.30;;;;;;;-7.00;69.58;97484.56;5072023;28;20111;-70
2021/11/24 11:41:24;;;;;;;0.65;0.50;;;;;;;-7.02;69.50;97478.53;5070534;28;20032;-70
2021/11/24 11:43:51;;;;;;;0.30;0.30;;;;;;;-7.02;69.58;97484.72;5072342;28;20069;-67
2021/11/24 11:46:23;;;;;;;0.60;0.60;;;;;;;-7.03;69.39;97491.06;5070871;28;20025;-67
2021/11/24 11:48:51;;;;;;;0.47;0.47;;;;;;;-7.08;69.35;97486.19;5071947;28;20115;-67
2021/11/24 11:51:33;;;;;;;0.73;0.60;;;;;;;-7.11;69.56;97481.16;5071033;28;20032;-69
2021/11/24 11:54:00;;;;;;;1.65;0.82;;;;;;;-7.13;69.63;97488.47;5072107;28;20036;-68